Time;durP1;ratioP1;P1;durP2;ratioP2;P2;SDS_P1;SDS_P2;PMS_P1;PMS_P2;Temp;Humidity;BMP_temperature;BMP_pressure;BME280_temperature;BME280_humidity;BME280_pressure;Samples;Min_cycle;Max_cycle;Signal;HPM_P1;HPM_P2
2024/01/03 00:00:27;;;;;;;36.88;8.52;;;11.60;90.40;;;;;;5011094;28;20497;-81
2024/01/03 00:02:54;;;;;;;33.92;6.88;;;11.60;90.30;;;;;;5011149;28;20048;-81
2024/01/03 00:05:25;;;;;;;32.53;6.18;;;11.60;90.50;;;;;;5010590;28;20029;-81
2024/01/03 00:07:51;;;;;;;28.60;5.95;;;11.50;90.60;;;;;;5010023;28;20029;-81
2024/01/03 00:10:32;;;;;;;28.92;5.80;;;11.60;90.80;;;;;;5015666;28;20476;-80
2024/01/03 00:12:58;;;;;;;29.25;6.70;;;11.60;90.80;;;;;;5026368;28;20060;-81
2024/01/03 00:15:36;;;;;;;29.48;6.88;;;11.50;90.50;;;;;;5029424;28;20038;-81
2024/01/03 00:18:06;;;;;;;29.80;6.78;;;11.60;90.00;;;;;;5008358;28;20704;-80
2024/01/03 00:20:35;;;;;;;23.83;5.60;;;11.60;90.00;;;;;;5014035;28;20022;-80
2024/01/03 00:23:10;;;;;;;30.23;6.72;;;11.50;90.80;;;;;;5012708;28;20052;-80
2024/01/03 00:25:35;;;;;;;;;;;11.50;90.90;;;;;;5021199;28;20445;-80
2024/01/03 00:28:02;;;;;;;27.90;5.65;;;11.40;91.10;;;;;;5021362;28;21298;-81
2024/01/03 00:30:28;;;;;;;25.27;5.28;;;11.40;91.00;;;;;;5016236;28;20089;-81
2024/01/03 00:32:54;;;;;;;28.95;7.13;;;11.40;91.10;;;;;;5018051;28;20038;-80
2024/01/03 00:35:20;;;;;;;28.70;6.43;;;11.30;91.50;;;;;;5019570;28;20021;-80
2024/01/03 00:37:46;;;;;;;28.30;5.60;;;11.30;92.10;;;;;;5015093;28;20431;-80
2024/01/03 00:40:31;;;;;;;33.20;5.95;;;11.30;92.50;;;;;;5019667;28;20068;-80
2024/01/03 00:42:56;;;;;;;23.60;5.65;;;11.20;92.80;;;;;;5036644;28;20042;-81
2024/01/03 00:45:22;;;;;;;29.08;5.55;;;11.10;93.00;;;;;;5041437;28;20040;-80
2024/01/03 00:47:48;;;;;;;22.85;5.43;;;11.10;92.90;;;;;;5040794;28;20352;-81
2024/01/03 00:50:14;;;;;;;24.75;6.07;;;11.10;92.30;;;;;;5023945;28;20029;-80
2024/01/03 00:52:40;;;;;;;29.55;6.05;;;11.10;92.30;;;;;;5017021;28;20068;-78
2024/01/03 00:55:08;;;;;;;22.65;4.90;;;11.10;92.20;;;;;;5019163;28;20029;-80
2024/01/03 00:57:34;;;;;;;26.55;5.60;;;11.10;92.60;;;;;;5016349;28;20029;-80
2024/01/03 01:00:00;;;;;;;28.90;5.72;;;11.10;92.70;;;;;;5013058;28;20525;-79
2024/01/03 01:02:26;;;;;;;27.85;6.35;;;11.00;93.20;;;;;;5009967;28;20018;-80
2024/01/03 01:04:52;;;;;;;22.13;5.97;;;11.00;93.60;;;;;;5018033;28;20029;-80
2024/01/03 01:07:17;;;;;;;23.38;5.50;;;10.90;93.70;;;;;;5012229;28;20022;-80
2024/01/03 01:09:43;;;;;;;30.17;6.28;;;10.90;93.80;;;;;;5010238;28;20025;-80
2024/01/03 01:12:08;;;;;;;32.03;6.50;;;10.90;94.00;;;;;;5019231;28;20416;-80
2024/01/03 01:14:34;;;;;;;31.70;6.60;;;10.90;93.80;;;;;;5015639;28;20393;-80
2024/01/03 01:17:00;;;;;;;25.80;6.75;;;10.90;93.50;;;;;;5054290;28;20116;-80
2024/01/03 01:19:25;;;;;;;28.23;5.95;;;10.90;93.30;;;;;;5035575;28;20124;-80
2024/01/03 01:21:51;;;;;;;34.80;7.00;;;11.00;93.00;;;;;;5055388;28;20024;-80
2024/01/03 01:24:17;;;;;;;27.67;5.75;;;10.90;92.90;;;;;;5058798;28;20174;-80
2024/01/03 01:26:42;;;;;;;34.95;7.13;;;11.00;92.60;;;;;;5053939;28;20028;-80
2024/01/03 01:29:08;;;;;;;28.92;6.28;;;11.00;92.30;;;;;;5055761;28;20119;-79
2024/01/03 01:31:33;;;;;;;28.13;6.53;;;11.00;92.30;;;;;;5056908;28;20508;-80
2024/01/03 01:33:59;;;;;;;32.05;7.13;;;10.90;92.10;;;;;;5036715;28;20448;-80
2024/01/03 01:36:25;;;;;;;29.15;6.65;;;10.90;92.10;;;;;;5032618;28;20028;-80
2024/01/03 01:38:50;;;;;;;31.88;6.53;;;10.90;92.20;;;;;;5056892;28;20040;-80
2024/01/03 01:41:16;;;;;;;27.23;6.20;;;10.80;92.30;;;;;;5037469;28;20029;-80
2024/01/03 01:43:41;;;;;;;33.75;6.97;;;10.90;92.50;;;;;;5056306;28;20067;-80
2024/01/03 01:46:09;;;;;;;28.80;5.88;;;10.90;92.60;;;;;;5055529;28;20085;-79
2024/01/03 01:48:35;;;;;;;34.05;6.45;;;11.00;92.50;;;;;;5055689;28;20064;-80
2024/01/03 01:51:02;;;;;;;32.00;5.85;;;10.90;92.50;;;;;;5052525;28;20090;-80
2024/01/03 01:53:28;;;;;;;31.90;6.05;;;10.90;92.60;;;;;;5041938;28;20028;-79
2024/01/03 01:55:54;;;;;;;32.70;7.32;;;11.00;92.70;;;;;;5043012;28;20054;-80
2024/01/03 01:58:22;;;;;;;29.80;6.38;;;11.00;92.80;;;;;;5039158;28;20041;-80
2024/01/03 02:00:48;;;;;;;27.35;5.68;;;11.00;92.70;;;;;;5054225;28;20031;-80
2024/01/03 02:03:15;;;;;;;34.20;7.63;;;11.00;92.80;;;;;;5029742;28;20045;-81
2024/01/03 02:05:43;;;;;;;30.67;5.75;;;11.00;92.80;;;;;;5047463;28;20032;-81
2024/01/03 02:08:10;;;;;;;31.17;6.35;;;11.10;92.50;;;;;;5052211;28;20036;-80
2024/01/03 02:10:36;;;;;;;34.03;5.40;;;11.10;92.50;;;;;;5055551;28;20048;-82
2024/01/03 02:13:02;;;;;;;30.58;6.63;;;11.10;92.60;;;;;;5049840;28;20503;-81
2024/01/03 02:15:28;;;;;;;30.83;5.95;;;11.10;92.90;;;;;;5055430;28;20224;-81
2024/01/03 02:17:57;;;;;;;27.90;6.43;;;11.10;93.10;;;;;;5056355;28;20036;-81
2024/01/03 02:20:25;;;;;;;29.92;5.25;;;11.10;93.20;;;;;;5028012;28;20016;-81
2024/01/03 02:22:50;;;;;;;27.45;5.43;;;11.00;93.50;;;;;;5049807;28;20025;-81
2024/01/03 02:25:16;;;;;;;34.72;6.25;;;11.00;93.70;;;;;;5053164;28;20021;-80
2024/01/03 02:27:42;;;;;;;28.63;5.03;;;11.00;93.90;;;;;;5054790;28;20033;-79
2024/01/03 02:30:09;;;;;;;24.58;5.53;;;10.90;93.90;;;;;;5057570;28;20028;-80
2024/01/03 02:32:34;;;;;;;22.20;4.07;;;10.90;93.90;;;;;;5048077;28;20056;-80
2024/01/03 02:35:00;;;;;;;21.58;4.60;;;10.80;93.60;;;;;;5055647;28;20017;-79
2024/01/03 02:37:26;;;;;;;19.95;4.38;;;10.80;93.60;;;;;;5057685;28;20479;-80
2024/01/03 02:39:52;;;;;;;21.88;4.45;;;10.80;93.60;;;;;;5058790;28;20020;-80
2024/01/03 02:42:17;;;;;;;21.60;4.93;;;10.70;93.60;;;;;;5039528;28;20047;-80
2024/01/03 02:44:43;;;;;;;15.95;3.78;;;10.70;93.80;;;;;;5052372;28;20445;-81
2024/01/03 02:47:09;;;;;;;19.73;4.90;;;10.60;93.30;;;;;;5040701;28;20070;-81
2024/01/03 02:49:34;;;;;;;15.35;3.97;;;10.70;93.20;;;;;;5036335;28;20070;-81
2024/01/03 02:52:00;;;;;;;18.27;4.32;;;10.70;92.90;;;;;;5053968;28;20016;-81
2024/01/03 02:54:26;;;;;;;13.43;3.63;;;10.70;92.80;;;;;;5049998;28;20071;-82
2024/01/03 02:56:53;;;;;;;14.70;3.65;;;10.70;92.20;;;;;;5041076;28;20387;-82
2024/01/03 02:59:19;;;;;;;12.20;2.90;;;10.70;91.90;;;;;;5049811;28;20040;-81
2024/01/03 03:01:45;;;;;;;16.05;3.28;;;10.60;91.90;;;;;;5053408;28;20021;-82
2024/01/03 03:04:11;;;;;;;14.02;3.58;;;10.60;92.00;;;;;;5033915;28;20421;-81
2024/01/03 03:06:36;;;;;;;16.40;3.60;;;10.60;92.20;;;;;;5051663;28;20350;-81
2024/01/03 03:09:02;;;;;;;13.45;3.55;;;10.60;92.30;;;;;;5048735;28;20033;-82
2024/01/03 03:11:28;;;;;;;12.68;3.08;;;10.50;92.40;;;;;;5052596;28;20416;-81
2024/01/03 03:13:53;;;;;;;12.25;2.67;;;10.50;92.60;;;;;;5053491;28;20025;-81
2024/01/03 03:16:19;;;;;;;15.23;3.00;;;10.50;92.70;;;;;;5037891;28;20048;-81
2024/01/03 03:18:45;;;;;;;16.92;3.35;;;10.50;92.70;;;;;;5051821;28;20041;-81
2024/01/03 03:21:10;;;;;;;13.82;2.80;;;10.50;92.80;;;;;;5046526;28;20541;-81
2024/01/03 03:23:36;;;;;;;17.70;3.47;;;10.50;93.00;;;;;;5036557;28;20044;-81
2024/01/03 03:26:03;;;;;;;18.08;3.20;;;10.50;93.10;;;;;;5034108;28;20016;-81
2024/01/03 03:28:30;;;;;;;15.68;3.20;;;10.40;93.30;;;;;;5034152;28;20036;-81
2024/01/03 03:30:55;;;;;;;14.25;3.53;;;10.50;93.40;;;;;;5049828;28;20021;-81
2024/01/03 03:33:21;;;;;;;19.83;4.20;;;10.50;93.50;;;;;;5033991;28;20047;-80
2024/01/03 03:35:47;;;;;;;17.20;3.95;;;10.50;93.60;;;;;;5053012;28;20036;-79
2024/01/03 03:38:12;;;;;;;17.30;3.97;;;10.50;93.70;;;;;;5053652;28;20032;-81
2024/01/03 03:40:38;;;;;;;17.98;3.33;;;10.50;93.90;;;;;;5039919;28;20033;-80
2024/01/03 03:43:04;;;;;;;19.85;3.83;;;10.50;94.20;;;;;;5049105;28;20510;-80
2024/01/03 03:45:31;;;;;;;17.83;3.70;;;10.50;94.50;;;;;;5049509;28;20025;-79
2024/01/03 03:47:57;;;;;;;17.10;3.55;;;10.50;94.80;;;;;;5035267;28;20035;-80
2024/01/03 03:50:22;;;;;;;16.55;3.67;;;10.50;95.00;;;;;;5049000;28;20154;-80
2024/01/03 03:52:48;;;;;;;19.13;4.65;;;10.50;95.20;;;;;;5030342;28;20048;-80
2024/01/03 03:55:16;;;;;;;18.65;3.92;;;10.40;95.40;;;;;;5037357;28;20029;-81
2024/01/03 03:57:41;;;;;;;19.02;3.65;;;10.40;95.50;;;;;;5053038;28;20503;-80
2024/01/03 04:00:08;;;;;;;15.85;3.47;;;10.30;95.40;;;;;;5056902;28;20059;-81
2024/01/03 04:02:33;;;;;;;15.68;3.92;;;10.30;94.90;;;;;;5058157;28;20067;-80
2024/01/03 04:04:59;;;;;;;16.00;3.45;;;10.30;94.70;;;;;;5053042;28;20036;-80
2024/01/03 04:07:24;;;;;;;19.35;3.03;;;10.30;94.70;;;;;;5037013;28;20013;-81
2024/01/03 04:09:50;;;;;;;17.17;3.75;;;10.30;94.90;;;;;;5039403;28;20027;-80
2024/01/03 04:12:15;;;;;;;13.27;2.97;;;10.30;95.20;;;;;;5057378;28;20042;-81
2024/01/03 04:14:41;;;;;;;12.13;2.60;;;10.30;95.30;;;;;;5055445;28;20050;-80
2024/01/03 04:17:07;;;;;;;15.18;4.28;;;10.20;95.40;;;;;;5044026;28;20040;-79
2024/01/03 04:19:32;;;;;;;15.82;2.80;;;10.20;95.50;;;;;;5057769;28;20102;-80
2024/01/03 04:21:58;;;;;;;11.95;2.80;;;10.20;95.60;;;;;;5062596;28;20578;-80
2024/01/03 04:24:24;;;;;;;14.70;3.53;;;10.20;95.70;;;;;;5058871;28;20473;-80
2024/01/03 04:26:53;;;;;;;15.93;3.67;;;10.20;95.70;;;;;;5060557;28;20034;-81
2024/01/03 04:29:19;;;;;;;16.83;3.20;;;10.20;95.80;;;;;;5055115;28;20022;-81
2024/01/03 04:31:44;;;;;;;13.55;2.90;;;10.20;96.00;;;;;;5058401;28;20025;-81
2024/01/03 04:34:10;;;;;;;21.27;3.72;;;10.20;96.20;;;;;;5040529;28;20045;-80
2024/01/03 04:36:36;;;;;;;17.05;3.22;;;10.10;96.30;;;;;;5037996;28;20386;-80
2024/01/03 04:39:01;;;;;;;15.95;3.65;;;10.20;96.20;;;;;;5050561;28;20037;-80
2024/01/03 04:41:27;;;;;;;15.02;3.60;;;10.20;96.20;;;;;;5055572;28;20056;-80
2024/01/03 04:43:53;;;;;;;13.75;3.40;;;10.20;96.30;;;;;;5042577;28;20033;-80
2024/01/03 04:46:18;;;;;;;16.77;4.15;;;10.20;96.20;;;;;;5060237;28;20021;-81
2024/01/03 04:48:44;;;;;;;14.27;3.53;;;10.20;96.30;;;;;;5058828;28;20078;-80
2024/01/03 04:51:10;;;;;;;20.73;3.83;;;10.30;96.40;;;;;;5040195;28;20086;-80
2024/01/03 04:53:37;;;;;;;21.35;4.40;;;10.30;96.40;;;;;;5058703;28;20041;-80
2024/01/03 04:56:04;;;;;;;22.48;4.13;;;10.30;96.50;;;;;;5042231;28;20598;-80
2024/01/03 04:58:29;;;;;;;13.27;3.38;;;10.20;96.60;;;;;;5040757;28;20061;-80
2024/01/03 05:00:55;;;;;;;14.38;3.00;;;10.10;94.90;;;;;;5050968;28;20169;-80
2024/01/03 05:03:21;;;;;;;6.55;2.40;;;9.90;93.80;;;;;;5042721;28;20032;-80
2024/01/03 05:05:46;;;;;;;8.40;1.88;;;9.80;92.60;;;;;;5043737;28;20027;-81
2024/01/03 05:08:12;;;;;;;5.50;1.80;;;9.70;92.40;;;;;;5041699;28;20170;-81
2024/01/03 05:10:37;;;;;;;5.45;1.75;;;9.60;92.50;;;;;;5057955;28;20031;-81
2024/01/03 05:13:03;;;;;;;5.28;1.30;;;9.60;93.00;;;;;;5041204;28;20090;-81
2024/01/03 05:15:29;;;;;;;3.15;1.10;;;9.40;93.00;;;;;;5038430;28;20209;-81
2024/01/03 05:17:54;;;;;;;2.70;1.15;;;9.40;93.00;;;;;;5056799;28;20040;-80
2024/01/03 05:20:20;;;;;;;5.07;1.23;;;9.30;93.40;;;;;;5057424;28;20027;-81
2024/01/03 05:22:46;;;;;;;5.05;1.30;;;9.20;93.80;;;;;;5037433;28;20143;-81
2024/01/03 05:25:11;;;;;;;3.55;1.23;;;9.10;93.80;;;;;;5043476;28;20021;-80
2024/01/03 05:27:37;;;;;;;5.45;1.20;;;9.10;94.20;;;;;;5059901;28;20040;-81
2024/01/03 05:30:03;;;;;;;3.22;1.20;;;9.20;94.40;;;;;;5058714;28;20040;-81
2024/01/03 05:32:28;;;;;;;2.70;1.20;;;9.10;94.60;;;;;;5063829;28;20065;-81
2024/01/03 05:34:54;;;;;;;4.13;1.65;;;9.10;94.70;;;;;;5082077;28;20032;-80
2024/01/03 05:37:20;;;;;;;4.82;2.10;;;9.10;94.80;;;;;;5087407;28;20043;-81
2024/01/03 05:39:45;;;;;;;4.47;1.88;;;9.10;94.90;;;;;;5066119;28;20024;-80
2024/01/03 05:42:11;;;;;;;3.45;1.83;;;9.10;95.00;;;;;;5065882;28;20024;-80
2024/01/03 05:44:37;;;;;;;5.93;2.40;;;9.10;95.20;;;;;;5062000;28;20064;-80
2024/01/03 05:47:03;;;;;;;6.32;2.13;;;9.10;95.30;;;;;;5061171;28;20025;-80
2024/01/03 05:49:29;;;;;;;4.57;1.92;;;9.10;95.40;;;;;;5052043;28;20044;-80
2024/01/03 05:51:54;;;;;;;5.90;2.47;;;9.10;95.50;;;;;;5058945;28;20028;-80
2024/01/03 05:54:20;;;;;;;8.80;2.47;;;9.10;95.80;;;;;;5056158;28;20036;-79
2024/01/03 05:56:46;;;;;;;8.18;3.00;;;9.10;95.80;;;;;;5057526;28;20024;-80
2024/01/03 05:59:11;;;;;;;8.10;2.70;;;9.10;95.60;;;;;;5038097;28;20045;-82
2024/01/03 06:01:37;;;;;;;8.23;2.50;;;9.10;95.60;;;;;;5057169;28;20676;-82
2024/01/03 06:04:02;;;;;;;8.35;1.90;;;9.10;95.60;;;;;;5054460;28;20463;-81
2024/01/03 06:06:28;;;;;;;13.00;3.13;;;9.10;95.60;;;;;;5040703;28;20016;-80
2024/01/03 06:08:54;;;;;;;11.85;2.58;;;9.10;95.60;;;;;;5039425;28;20073;-81
2024/01/03 06:11:19;;;;;;;15.93;3.00;;;9.10;95.60;;;;;;5039389;28;20028;-81
2024/01/03 06:13:45;;;;;;;13.48;2.33;;;9.20;95.60;;;;;;5053812;28;20404;-81
2024/01/03 06:16:10;;;;;;;10.52;2.72;;;9.20;95.50;;;;;;5034932;28;20417;-80
2024/01/03 06:18:36;;;;;;;12.70;2.83;;;9.20;95.50;;;;;;5056340;28;20047;-81
2024/01/03 06:21:02;;;;;;;11.85;2.70;;;9.30;95.60;;;;;;5052453;28;21431;-80
2024/01/03 06:23:28;;;;;;;15.32;3.92;;;9.40;95.50;;;;;;5054578;28;20029;-80
2024/01/03 06:25:53;;;;;;;10.73;2.97;;;9.40;95.50;;;;;;5039001;28;20480;-81
2024/01/03 06:28:19;;;;;;;18.77;3.92;;;9.50;95.30;;;;;;5054297;28;20466;-80
2024/01/03 06:30:45;;;;;;;14.65;3.03;;;9.50;95.30;;;;;;5054607;28;20679;-80
2024/01/03 06:33:10;;;;;;;14.75;3.08;;;9.50;95.10;;;;;;5050303;28;20131;-80
2024/01/03 06:35:36;;;;;;;15.13;3.55;;;9.60;95.20;;;;;;5053987;28;20024;-81
2024/01/03 06:38:03;;;;;;;18.77;3.70;;;9.50;95.10;;;;;;5053977;28;20040;-80
2024/01/03 06:40:30;;;;;;;20.20;4.30;;;9.50;94.90;;;;;;5036497;28;20128;-81
2024/01/03 06:42:56;;;;;;;22.25;5.43;;;9.50;94.90;;;;;;5039919;28;20024;-80
2024/01/03 06:45:21;;;;;;;25.40;5.10;;;9.50;95.10;;;;;;5032704;28;20449;-81
2024/01/03 06:47:47;;;;;;;19.90;4.18;;;9.50;95.20;;;;;;5039483;28;20029;-81
2024/01/03 06:50:13;;;;;;;23.25;4.85;;;9.50;95.20;;;;;;5039520;28;20459;-80
2024/01/03 06:52:39;;;;;;;18.40;5.65;;;9.60;95.20;;;;;;5051915;28;20402;-82
2024/01/03 06:55:05;;;;;;;23.25;5.97;;;9.60;95.10;;;;;;5052301;28;20033;-79
2024/01/03 06:57:31;;;;;;;23.00;5.00;;;9.60;95.10;;;;;;5048572;28;20029;-82
2024/01/03 06:59:57;;;;;;;25.55;5.35;;;9.60;95.10;;;;;;5040130;28;20085;-80
2024/01/03 07:02:24;;;;;;;29.05;5.63;;;9.60;95.10;;;;;;5055246;28;20468;-81
2024/01/03 07:04:49;;;;;;;30.42;6.28;;;9.60;95.20;;;;;;5053296;28;20041;-81
2024/01/03 07:07:17;;;;;;;24.63;5.28;;;9.70;95.20;;;;;;5032513;28;20027;-81
2024/01/03 07:09:43;;;;;;;25.63;5.50;;;9.80;95.10;;;;;;5039101;28;20013;-81
2024/01/03 07:12:08;;;;;;;26.25;5.68;;;9.80;95.00;;;;;;5040982;28;20497;-82
2024/01/03 07:14:34;;;;;;;28.33;5.18;;;9.80;94.90;;;;;;5038005;28;20070;-81
2024/01/03 07:17:00;;;;;;;23.73;5.05;;;9.90;95.00;;;;;;5049062;28;20051;-82
2024/01/03 07:19:25;;;;;;;25.60;5.28;;;9.90;95.20;;;;;;5037887;28;20409;-82
2024/01/03 07:21:51;;;;;;;24.30;6.00;;;10.00;95.30;;;;;;5055192;28;20016;-81
2024/01/03 07:24:17;;;;;;;28.48;4.72;;;9.90;95.30;;;;;;5051722;28;20108;-81
2024/01/03 07:26:42;;;;;;;26.25;4.75;;;9.90;95.30;;;;;;5052717;28;20039;-82
2024/01/03 07:29:08;;;;;;;27.08;5.25;;;9.90;95.50;;;;;;5054517;28;20463;-81
2024/01/03 07:31:34;;;;;;;26.08;4.68;;;9.90;95.50;;;;;;5036774;28;20021;-80
2024/01/03 07:33:59;;;;;;;26.90;5.68;;;9.90;95.60;;;;;;5038721;28;20106;-82
2024/01/03 07:36:25;;;;;;;28.85;4.88;;;9.90;95.60;;;;;;5046972;28;20353;-80
2024/01/03 07:38:50;;;;;;;26.27;5.38;;;9.90;95.60;;;;;;5056183;28;20388;-81
2024/01/03 07:41:19;;;;;;;23.38;5.15;;;10.00;95.60;;;;;;5036500;28;20017;-81
2024/01/03 07:43:45;;;;;;;25.85;6.72;;;10.00;95.70;;;;;;5055557;28;20044;-81
2024/01/03 07:46:14;;;;;;;28.73;6.30;;;10.00;95.80;;;;;;5045524;28;20115;-82
2024/01/03 07:48:39;;;;;;;29.90;6.00;;;10.00;95.90;;;;;;5039934;28;20354;-82
2024/01/03 07:51:05;;;;;;;29.88;5.72;;;10.10;95.90;;;;;;5038378;28;20376;-81
2024/01/03 07:53:31;;;;;;;26.77;6.75;;;10.00;95.80;;;;;;5053402;28;20129;-81
2024/01/03 07:55:56;;;;;;;32.30;6.30;;;10.00;95.80;;;;;;5060528;28;20020;-82
2024/01/03 07:58:22;;;;;;;32.03;6.65;;;10.00;95.80;;;;;;5049619;28;21905;-81
2024/01/03 08:00:47;;;;;;;22.77;6.30;;;9.90;95.80;;;;;;5055034;28;20331;-81
2024/01/03 08:03:13;;;;;;;34.10;7.78;;;9.90;95.90;;;;;;5048742;28;20046;-82
2024/01/03 08:05:39;;;;;;;36.63;8.13;;;9.80;96.00;;;;;;5055716;28;20033;-81
2024/01/03 08:08:04;;;;;;;27.95;6.35;;;9.80;96.10;;;;;;5074018;28;20046;-82
2024/01/03 08:10:30;;;;;;;35.08;7.75;;;9.80;96.10;;;;;;5052840;28;20020;-81
2024/01/03 08:12:56;;;;;;;34.50;7.15;;;9.70;96.20;;;;;;5065354;28;20040;-81
2024/01/03 08:15:21;;;;;;;32.42;7.57;;;9.70;96.20;;;;;;5081147;28;20047;-81
2024/01/03 08:17:47;;;;;;;35.83;7.88;;;9.70;96.30;;;;;;5074033;28;20077;-82
2024/01/03 08:20:12;;;;;;;37.47;7.90;;;9.70;96.40;;;;;;5081326;28;20044;-81
2024/01/03 08:22:38;;;;;;;38.80;8.10;;;9.80;96.40;;;;;;5081363;28;20038;-81
2024/01/03 08:25:05;;;;;;;35.10;7.22;;;9.90;96.10;;;;;;5079088;28;20032;-81
2024/01/03 08:27:32;;;;;;;37.00;6.90;;;9.90;95.80;;;;;;5058670;28;20127;-81
2024/01/03 08:29:57;;;;;;;33.25;7.07;;;10.00;95.30;;;;;;5057923;28;20346;-81
2024/01/03 08:32:26;;;;;;;28.42;6.15;;;10.10;95.10;;;;;;5061193;28;20017;-81
2024/01/03 08:34:52;;;;;;;26.73;4.95;;;10.10;94.70;;;;;;5076571;28;20024;-80
2024/01/03 08:37:17;;;;;;;26.65;6.35;;;10.10;94.40;;;;;;5057493;28;20021;-80
2024/01/03 08:39:43;;;;;;;24.83;5.78;;;10.10;94.30;;;;;;5069665;28;20096;-81
2024/01/03 08:42:09;;;;;;;20.23;4.93;;;10.10;94.30;;;;;;5062135;28;20546;-80
2024/01/03 08:44:34;;;;;;;22.92;5.68;;;10.10;94.30;;;;;;5041109;28;20387;-82
2024/01/03 08:47:00;;;;;;;25.30;5.72;;;10.10;94.50;;;;;;5036539;28;20484;-81
2024/01/03 08:49:26;;;;;;;22.67;5.35;;;10.10;94.40;;;;;;5041389;28;20029;-81
2024/01/03 08:51:51;;;;;;;30.55;6.82;;;10.10;94.50;;;;;;5055052;28;20445;-80
2024/01/03 08:54:17;;;;;;;25.70;5.85;;;10.10;94.50;;;;;;5054508;28;20556;-81
2024/01/03 08:56:43;;;;;;;27.52;6.45;;;10.00;94.60;;;;;;5055135;28;20025;-79
2024/01/03 08:59:09;;;;;;;20.27;4.90;;;10.00;94.80;;;;;;5040556;28;20044;-81
2024/01/03 09:01:34;;;;;;;21.98;4.57;;;10.10;94.80;;;;;;5053711;28;20036;-81
2024/01/03 09:04:01;;;;;;;23.88;5.18;;;10.10;94.90;;;;;;5059004;28;20047;-82
2024/01/03 09:06:27;;;;;;;29.42;5.35;;;10.10;94.90;;;;;;5060845;28;20211;-82
2024/01/03 09:08:54;;;;;;;20.52;5.53;;;10.10;94.90;;;;;;5036965;28;20108;-81
2024/01/03 09:11:25;;;;;;;27.40;5.57;;;10.10;95.10;;;;;;5054943;28;20024;-82
2024/01/03 09:13:51;;;;;;;21.25;4.60;;;10.10;95.20;;;;;;5039789;28;20048;-81
2024/01/03 09:16:19;;;;;;;25.67;5.32;;;10.10;95.10;;;;;;5055212;28;20052;-81
2024/01/03 09:18:46;;;;;;;25.95;4.68;;;10.10;95.00;;;;;;5056139;28;20115;-81
2024/01/03 09:21:12;;;;;;;22.17;4.72;;;10.10;94.80;;;;;;5055362;28;20038;-81
2024/01/03 09:23:37;;;;;;;26.48;5.32;;;10.10;94.80;;;;;;5035277;28;20032;-82
2024/01/03 09:26:04;;;;;;;24.88;4.78;;;10.10;95.10;;;;;;5039025;28;20501;-80
2024/01/03 09:28:30;;;;;;;15.45;4.05;;;10.10;95.30;;;;;;5040513;28;20029;-81
2024/01/03 09:30:56;;;;;;;22.42;4.65;;;10.10;95.40;;;;;;5054949;28;20027;-81
2024/01/03 09:33:21;;;;;;;20.90;4.32;;;10.10;95.60;;;;;;5042227;28;20040;-81
2024/01/03 09:35:47;;;;;;;18.83;4.43;;;10.00;95.60;;;;;;5039361;28;20025;-81
2024/01/03 09:38:14;;;;;;;16.67;3.72;;;10.00;95.80;;;;;;5051689;28;20041;-81
2024/01/03 09:40:41;;;;;;;21.52;4.70;;;10.10;95.80;;;;;;5053104;28;20102;-81
2024/01/03 09:43:08;;;;;;;21.65;4.28;;;10.10;96.00;;;;;;5058934;28;20076;-81
2024/01/03 09:45:37;;;;;;;23.98;5.93;;;10.20;95.90;;;;;;5054119;28;20117;-80
2024/01/03 09:48:04;;;;;;;22.65;4.95;;;10.30;95.90;;;;;;5022849;28;20493;-82
2024/01/03 09:50:30;;;;;;;23.08;4.50;;;10.50;95.90;;;;;;5053550;28;20028;-81
2024/01/03 09:52:56;;;;;;;21.30;5.30;;;10.60;95.80;;;;;;5053507;28;20055;-81
2024/01/03 09:55:21;;;;;;;19.77;5.20;;;10.60;95.70;;;;;;5043553;28;20371;-80
2024/01/03 09:57:49;;;;;;;26.95;6.22;;;10.70;95.60;;;;;;5057847;28;20028;-81
2024/01/03 10:00:16;;;;;;;30.10;5.60;;;10.80;95.50;;;;;;5058057;28;20407;-80
2024/01/03 10:02:45;;;;;;;30.35;6.18;;;10.90;95.30;;;;;;5043358;28;20629;-81
2024/01/03 10:05:20;;;;;;;24.85;5.10;;;10.90;94.90;;;;;;5053793;28;20024;-80
2024/01/03 10:07:47;;;;;;;21.50;6.45;;;10.90;94.80;;;;;;5042049;28;20636;-80
2024/01/03 10:10:27;;;;;;;24.35;5.90;;;10.90;94.50;;;;;;5055154;28;21717;-81
2024/01/03 10:12:54;;;;;;;21.05;4.25;;;10.90;94.40;;;;;;5058355;28;20032;-81
2024/01/03 10:15:20;;;;;;;22.25;4.72;;;10.80;94.10;;;;;;5038692;28;20777;-81
2024/01/03 10:17:46;;;;;;;23.95;6.35;;;10.80;94.00;;;;;;5036161;28;20506;-80
2024/01/03 10:20:29;;;;;;;24.50;5.80;;;10.80;94.00;;;;;;5059549;28;20033;-81
2024/01/03 10:23:05;;;;;;;26.77;4.95;;;10.80;93.90;;;;;;5055455;28;20040;-81
2024/01/03 10:25:31;;;;;;;27.33;5.60;;;10.80;93.90;;;;;;5057460;28;20048;-81
2024/01/03 10:28:02;;;;;;;29.00;6.22;;;10.70;94.00;;;;;;5060934;28;20555;-81
2024/01/03 10:30:28;;;;;;;26.13;5.95;;;10.70;94.30;;;;;;5073846;28;20016;-82
2024/01/03 10:33:00;;;;;;;26.60;5.72;;;10.60;94.50;;;;;;5068801;28;20046;-81
2024/01/03 10:35:33;;;;;;;23.02;6.63;;;10.70;94.70;;;;;;5064779;28;20024;-81
2024/01/03 10:38:00;;;;;;;33.30;11.75;;;10.70;94.90;;;;;;5039407;28;20079;-80
2024/01/03 10:40:28;;;;;;;26.45;7.90;;;10.80;95.00;;;;;;5054350;28;20048;-80
2024/01/03 10:42:54;;;;;;;24.15;6.05;;;10.80;95.00;;;;;;5060585;28;20039;-81
2024/01/03 10:45:20;;;;;;;24.38;5.18;;;10.90;94.80;;;;;;5039662;28;20027;-81
2024/01/03 10:47:46;;;;;;;26.88;8.13;;;11.00;94.50;;;;;;5031108;28;20049;-82
2024/01/03 10:50:13;;;;;;;26.25;6.15;;;11.00;94.20;;;;;;5041710;28;20024;-81
2024/01/03 10:52:42;;;;;;;21.27;4.82;;;11.10;94.00;;;;;;5053579;28;20029;-80
2024/01/03 10:55:24;;;;;;;23.85;5.32;;;11.20;94.00;;;;;;5057678;28;20028;-82
2024/01/03 10:58:13;;;;;;;22.02;4.80;;;11.30;93.80;;;;;;5035779;28;20338;-80
2024/01/03 11:01:18;;;;;;;19.77;5.00;;;11.50;92.90;;;;;;5037432;28;20342;-79
2024/01/03 11:04:05;;;;;;;24.17;7.68;;;11.60;92.20;;;;;;5052564;28;20092;-81
2024/01/03 11:06:39;;;;;;;21.73;6.57;;;11.70;91.60;;;;;;5055319;28;20574;-79
2024/01/03 11:09:07;;;;;;;20.48;4.53;;;11.80;91.40;;;;;;5053696;28;20127;-79
2024/01/03 11:11:35;;;;;;;21.85;4.65;;;11.70;91.30;;;;;;5052496;28;20029;-79
2024/01/03 11:14:17;;;;;;;25.58;8.05;;;11.50;91.30;;;;;;5029165;28;20029;-78
2024/01/03 11:16:42;;;;;;;20.50;4.38;;;11.50;91.30;;;;;;5029510;28;20049;-79
2024/01/03 11:19:09;;;;;;;25.25;4.60;;;11.60;91.40;;;;;;5046022;28;20132;-80
2024/01/03 11:21:35;;;;;;;19.60;4.97;;;11.60;91.30;;;;;;5043697;28;20049;-80
2024/01/03 11:24:02;;;;;;;22.52;4.93;;;11.60;91.10;;;;;;5049781;28;20152;-80
2024/01/03 11:26:55;;;;;;;22.27;4.47;;;11.60;90.90;;;;;;5045087;28;20423;-81
2024/01/03 11:29:44;;;;;;;21.13;4.70;;;11.60;91.10;;;;;;5047235;28;20041;-78
2024/01/03 11:32:24;;;;;;;21.42;4.80;;;11.60;91.00;;;;;;5044955;28;20516;-76
2024/01/03 11:34:50;;;;;;;21.48;4.20;;;11.60;91.10;;;;;;5019787;28;20037;-76
2024/01/03 11:37:18;;;;;;;15.15;3.45;;;11.60;90.60;;;;;;5034510;28;20130;-76
2024/01/03 11:39:50;;;;;;;14.35;3.33;;;11.50;90.40;;;;;;5039291;28;20035;-76
2024/01/03 11:42:22;;;;;;;22.67;4.32;;;11.50;90.50;;;;;;5043373;28;20021;-76
2024/01/03 11:45:00;;;;;;;19.08;4.07;;;11.50;90.90;;;;;;5038904;28;20122;-76
2024/01/03 11:47:27;;;;;;;18.00;4.60;;;11.40;91.00;;;;;;5041882;28;20517;-75
2024/01/03 11:49:56;;;;;;;9.70;3.13;;;11.40;91.70;;;;;;5023200;28;20135;-75
2024/01/03 11:52:23;;;;;;;19.48;4.20;;;11.20;92.30;;;;;;5044490;28;20020;-76
2024/01/03 11:54:52;;;;;;;16.65;3.42;;;11.10;93.00;;;;;;5041590;28;20617;-75
2024/01/03 11:57:22;;;;;;;16.77;3.92;;;11.10;93.10;;;;;;5042241;28;20025;-77
2024/01/03 12:00:01;;;;;;;16.30;3.85;;;11.00;93.50;;;;;;5021984;28;20040;-76
2024/01/03 12:02:28;;;;;;;13.98;3.95;;;10.80;93.80;;;;;;5042891;28;20033;-75
2024/01/03 12:05:07;;;;;;;17.55;3.97;;;10.80;94.20;;;;;;5039321;28;20029;-75
2024/01/03 12:07:35;;;;;;;18.08;4.47;;;10.80;94.20;;;;;;5047025;28;20346;-76
2024/01/03 12:10:03;;;;;;;19.08;4.28;;;10.80;94.30;;;;;;5034154;28;20127;-75
2024/01/03 12:12:30;;;;;;;18.92;4.78;;;10.80;94.30;;;;;;5039688;28;20053;-75
2024/01/03 12:14:56;;;;;;;14.60;3.95;;;10.80;94.40;;;;;;5038546;28;20306;-75
2024/01/03 12:17:25;;;;;;;14.93;3.78;;;10.80;94.40;;;;;;5030126;28;20117;-75
2024/01/03 12:19:51;;;;;;;18.35;4.03;;;10.80;94.50;;;;;;5047378;28;20308;-75
2024/01/03 12:22:24;;;;;;;17.23;3.70;;;10.80;94.40;;;;;;5045157;28;20082;-75
2024/01/03 12:24:50;;;;;;;16.00;3.58;;;10.80;94.40;;;;;;5045674;28;20031;-73
2024/01/03 12:27:23;;;;;;;17.38;4.03;;;10.80;94.30;;;;;;5032010;28;20028;-75
2024/01/03 12:29:51;;;;;;;18.38;4.30;;;10.80;94.10;;;;;;5046436;28;20024;-74
2024/01/03 12:32:18;;;;;;;13.95;3.78;;;10.80;94.00;;;;;;5030924;28;20378;-75
2024/01/03 12:34:46;;;;;;;20.88;4.40;;;10.60;93.60;;;;;;5043303;28;20501;-73
2024/01/03 12:37:12;;;;;;;14.95;4.05;;;10.60;93.20;;;;;;5020640;28;20387;-73
2024/01/03 12:39:39;;;;;;;17.08;4.30;;;10.60;93.40;;;;;;5050032;28;20283;-75